Time,TemperatureF,DewpointF,PressureIn,WindDirection,WindDirectionDegrees,WindSpeedMPH,WindSpeedGustMPH,Humidity,HourlyPrecipIn,Conditions,Clouds,dailyrainin,SoftwareType,DateUTC
2013-03-02 00:00:00,22.0,17.3,30.34,WNW,300,6.0,7.0,82,0.00,,,0.00,Wunderground v.1.15,2013-03-02 06:00:00,
2013-03-02 00:05:00,22.0,17.3,30.34,WNW,302,7.0,8.0,82,0.00,,,0.00,Wunderground v.1.15,2013-03-02 06:05:00,
2013-03-02 00:11:00,21.8,16.9,30.34,NW,308,7.0,8.0,81,0.00,,,0.00,Wunderground v.1.15,2013-03-02 06:11:00,
2013-03-02 00:17:00,21.7,16.8,30.35,NW,308,7.0,8.0,81,0.00,,,0.00,Wunderground v.1.15,2013-03-02 06:17:00,
2013-03-02 00:22:00,21.6,17.0,30.35,NW,311,7.0,9.0,82,0.00,,,0.00,Wunderground v.1.15,2013-03-02 06:22:00,
2013-03-02 00:28:00,21.5,16.9,30.34,NW,313,7.0,9.0,82,0.00,,,0.00,Wunderground v.1.15,2013-03-02 06:28:00,
2013-03-02 00:33:00,21.4,16.8,30.34,NW,311,7.0,8.0,82,0.00,,,0.00,Wunderground v.1.15,2013-03-02 06:33:00,
2013-03-02 00:39:00,21.3,16.7,30.34,NW,317,7.0,8.0,82,0.00,,,0.00,Wunderground v.1.15,2013-03-02 06:39:00,
2013-03-02 00:44:00,21.2,16.6,30.34,NW,324,7.0,7.0,82,0.00,,,0.00,Wunderground v.1.15,2013-03-02 06:44:00,
2013-03-02 00:50:00,21.2,16.6,30.34,NW,315,6.0,7.0,82,0.00,,,0.00,Wunderground v.1.15,2013-03-02 06:50:00,
2013-03-02 00:55:00,21.1,16.5,30.35,NW,315,6.0,7.0,82,0.00,,,0.00,Wunderground v.1.15,2013-03-02 06:55:00,
2013-03-02 01:01:00,20.9,16.5,30.35,NW,321,6.0,6.0,83,0.00,,,0.00,Wunderground v.1.15,2013-03-02 07:01:00,
2013-03-02 01:06:00,20.7,16.4,30.35,NW,323,6.0,7.0,83,0.00,,,0.00,Wunderground v.1.15,2013-03-02 07:06:00,
2013-03-02 01:12:00,20.6,16.3,30.35,NW,323,6.0,7.0,83,0.00,,,0.00,Wunderground v.1.15,2013-03-02 07:12:00,
2013-03-02 01:17:00,20.5,16.2,30.35,NW,325,6.0,8.0,83,0.00,,,0.00,Wunderground v.1.15,2013-03-02 07:17:00,
2013-03-02 01:23:00,20.4,16.3,30.34,NW,321,6.0,7.0,84,0.00,,,0.00,Wunderground v.1.15,2013-03-02 07:23:00,
2013-03-02 01:28:00,20.3,16.2,30.35,NW,324,6.0,8.0,84,0.00,,,0.00,Wunderground v.1.15,2013-03-02 07:28:00,
2013-03-02 01:34:00,20.2,16.1,30.35,NW,313,7.0,8.0,84,0.00,,,0.00,Wunderground v.1.15,2013-03-02 07:34:00,
2013-03-02 01:39:00,20.0,15.9,30.35,WNW,302,6.0,8.0,84,0.00,,,0.00,Wunderground v.1.15,2013-03-02 07:39:00,
2013-03-02 01:46:00,19.7,15.6,30.35,NW,312,5.0,6.0,84,0.00,,,0.00,Wunderground v.1.15,2013-03-02 07:46:00,
2013-03-02 01:52:00,19.3,15.3,30.34,NW,311,4.0,5.0,84,0.00,,,0.00,Wunderground v.1.15,2013-03-02 07:52:00,
2013-03-02 01:57:00,19.0,15.0,30.34,NW,306,4.0,5.0,84,0.00,,,0.00,Wunderground v.1.15,2013-03-02 07:57:00,
2013-03-02 02:02:00,18.7,14.9,30.34,WNW,296,4.0,5.0,85,0.00,,,0.00,Wunderground v.1.15,2013-03-02 08:02:00,
2013-03-02 02:08:00,18.7,15.2,30.35,WNW,290,4.0,5.0,86,0.00,,,0.00,Wunderground v.1.15,2013-03-02 08:08:00,
2013-03-02 02:13:00,18.6,15.1,30.35,WNW,284,5.0,6.0,86,0.00,,,0.00,Wunderground v.1.15,2013-03-02 08:13:00,
2013-03-02 02:19:00,18.5,15.0,30.35,WNW,288,4.0,6.0,86,0.00,,,0.00,Wunderground v.1.15,2013-03-02 08:19:00,
2013-03-02 02:25:00,18.2,14.7,30.35,WNW,303,4.0,6.0,86,0.00,,,0.00,Wunderground v.1.15,2013-03-02 08:25:00,
2013-03-02 02:30:00,18.2,15.0,30.35,NW,313,5.0,6.0,87,0.00,,,0.00,Wunderground v.1.15,2013-03-02 08:30:00,
2013-03-02 02:36:00,18.0,14.5,30.35,NW,313,5.0,6.0,86,0.00,,,0.00,Wunderground v.1.15,2013-03-02 08:36:00,
2013-03-02 02:41:00,17.7,14.2,30.35,NW,313,5.0,7.0,86,0.00,,,0.00,Wunderground v.1.15,2013-03-02 08:41:00,
2013-03-02 02:46:00,17.4,13.9,30.34,NW,308,6.0,7.0,86,0.00,,,0.00,Wunderground v.1.15,2013-03-02 08:46:00,
2013-03-02 02:52:00,17.2,14.0,30.34,NW,319,6.0,7.0,87,0.00,,,0.00,Wunderground v.1.15,2013-03-02 08:52:00,
2013-03-02 02:58:00,17.2,14.0,30.35,NW,317,6.0,7.0,87,0.00,,,0.00,Wunderground v.1.15,2013-03-02 08:58:00,
2013-03-02 03:04:00,17.2,14.0,30.35,NNW,329,6.0,7.0,87,0.00,,,0.00,Wunderground v.1.15,2013-03-02 09:04:00,
2013-03-02 03:09:00,17.7,14.8,30.35,NW,325,6.0,7.0,88,0.00,,,0.00,Wunderground v.1.15,2013-03-02 09:09:00,
2013-03-02 03:15:00,18.1,14.9,30.35,NW,324,6.0,8.0,87,0.00,,,0.00,Wunderground v.1.15,2013-03-02 09:15:00,
2013-03-02 03:20:00,18.2,15.0,30.35,NNW,327,7.0,8.0,87,0.00,,,0.00,Wunderground v.1.15,2013-03-02 09:20:00,
2013-03-02 03:27:00,18.3,15.1,30.34,NNW,333,7.0,8.0,87,0.00,,,0.00,Wunderground v.1.15,2013-03-02 09:27:00,
2013-03-02 03:32:00,18.4,15.2,30.34,NNW,342,6.0,8.0,87,0.00,,,0.00,Wunderground v.1.15,2013-03-02 09:32:00,
2013-03-02 03:38:00,18.7,15.5,30.34,NNW,335,7.0,8.0,87,0.00,,,0.00,Wunderground v.1.15,2013-03-02 09:38:00,
2013-03-02 03:43:00,19.0,15.5,30.34,NNW,331,6.0,8.0,86,0.00,,,0.00,Wunderground v.1.15,2013-03-02 09:43:00,
2013-03-02 03:49:00,19.0,15.5,30.34,NNW,331,6.0,8.0,86,0.00,,,0.00,Wunderground v.1.15,2013-03-02 09:49:00,
2013-03-02 03:54:00,18.8,15.3,30.34,NNW,334,5.0,6.0,86,0.00,,,0.00,Wunderground v.1.15,2013-03-02 09:54:00,
2013-03-02 04:00:00,18.5,15.0,30.34,NW,320,5.0,6.0,86,0.00,,,0.00,Wunderground v.1.15,2013-03-02 10:00:00,
2013-03-02 04:06:00,18.2,14.7,30.34,NW,315,5.0,7.0,86,0.00,,,0.00,Wunderground v.1.15,2013-03-02 10:06:00,
2013-03-02 04:15:00,17.7,14.2,30.34,NW,310,6.0,7.0,86,0.00,,,0.00,Wunderground v.1.15,2013-03-02 10:15:00,
2013-03-02 04:20:00,17.3,13.8,30.34,NW,310,6.0,6.0,86,0.00,,,0.00,Wunderground v.1.15,2013-03-02 10:20:00,
2013-03-02 04:26:00,17.0,13.5,30.35,WNW,300,6.0,7.0,86,0.00,,,0.00,Wunderground v.1.15,2013-03-02 10:26:00,
2013-03-02 04:31:00,16.9,13.7,30.35,NW,316,7.0,8.0,87,0.00,,,0.00,Wunderground v.1.15,2013-03-02 10:31:00,
2013-03-02 04:37:00,17.1,14.2,30.35,NW,324,7.0,8.0,88,0.00,,,0.00,Wunderground v.1.15,2013-03-02 10:37:00,
2013-03-02 04:42:00,17.5,14.6,30.35,NW,307,6.0,8.0,88,0.00,,,0.00,Wunderground v.1.15,2013-03-02 10:42:00,
2013-03-02 04:48:00,17.2,14.0,30.36,WNW,303,6.0,8.0,87,0.00,,,0.00,Wunderground v.1.15,2013-03-02 10:48:00,
2013-03-02 04:54:00,17.2,14.0,30.36,NW,305,7.0,9.0,87,0.00,,,0.00,Wunderground v.1.15,2013-03-02 10:54:00,
2013-03-02 05:00:00,17.0,14.1,30.36,NW,306,7.0,9.0,88,0.00,,,0.00,Wunderground v.1.15,2013-03-02 11:00:00,
2013-03-02 05:05:00,17.1,14.4,30.36,NW,323,8.0,11.0,89,0.00,,,0.00,Wunderground v.1.15,2013-03-02 11:05:00,
2013-03-02 05:11:00,17.4,14.7,30.37,NW,310,8.0,11.0,89,0.00,,,0.00,Wunderground v.1.15,2013-03-02 11:11:00,
2013-03-02 05:16:00,17.6,14.7,30.36,NW,309,9.0,11.0,88,0.00,,,0.00,Wunderground v.1.15,2013-03-02 11:16:00,
2013-03-02 05:22:00,17.6,14.7,30.37,NW,313,8.0,10.0,88,0.00,,,0.00,Wunderground v.1.15,2013-03-02 11:22:00,
2013-03-02 05:27:00,17.5,14.6,30.37,NW,313,8.0,10.0,88,0.00,,,0.00,Wunderground v.1.15,2013-03-02 11:27:00,
2013-03-02 05:32:00,17.5,14.6,30.37,NW,312,7.0,7.0,88,0.00,,,0.00,Wunderground v.1.15,2013-03-02 11:32:00,
2013-03-02 05:38:00,17.4,14.5,30.37,NW,313,7.0,9.0,88,0.00,,,0.00,Wunderground v.1.15,2013-03-02 11:38:00,
2013-03-02 05:44:00,17.3,14.4,30.37,NW,322,6.0,7.0,88,0.00,,,0.00,Wunderground v.1.15,2013-03-02 11:44:00,
2013-03-02 05:49:00,17.5,14.6,30.37,NW,324,5.0,7.0,88,0.00,,,0.00,Wunderground v.1.15,2013-03-02 11:49:00,
2013-03-02 05:55:00,17.6,14.7,30.36,NNW,328,6.0,6.0,88,0.00,,,0.00,Wunderground v.1.15,2013-03-02 11:55:00,
2013-03-02 06:00:00,17.5,14.6,30.36,NNW,336,6.0,6.0,88,0.00,,,0.00,Wunderground v.1.15,2013-03-02 12:00:00,
2013-03-02 06:06:00,17.6,14.7,30.36,NNW,342,6.0,7.0,88,0.00,,,0.00,Wunderground v.1.15,2013-03-02 12:06:00,
2013-03-02 06:11:00,17.7,14.8,30.36,North,355,5.0,5.0,88,0.00,,,0.00,Wunderground v.1.15,2013-03-02 12:11:00,
2013-03-02 06:17:00,18.2,15.2,30.36,NNW,338,4.0,6.0,88,0.00,,,0.00,Wunderground v.1.15,2013-03-02 12:17:00,
2013-03-02 06:22:00,18.2,15.0,30.36,NNW,331,5.0,5.0,87,0.00,,,0.00,Wunderground v.1.15,2013-03-02 12:22:00,
2013-03-02 06:28:00,17.8,14.6,30.36,NNW,338,4.0,5.0,87,0.00,,,0.00,Wunderground v.1.15,2013-03-02 12:28:00,
2013-03-02 06:34:00,18.0,15.3,30.36,North,355,4.0,5.0,89,0.00,,,0.00,Wunderground v.1.15,2013-03-02 12:34:00,
2013-03-02 06:40:00,18.0,15.0,30.36,NNW,329,4.0,5.0,88,0.00,,,0.00,Wunderground v.1.15,2013-03-02 12:40:00,
2013-03-02 06:46:00,17.7,14.5,30.36,NNW,333,4.0,5.0,87,0.00,,,0.00,Wunderground v.1.15,2013-03-02 12:46:00,
2013-03-02 06:52:00,17.1,13.9,30.36,NW,326,3.0,4.0,87,0.00,,,0.00,Wunderground v.1.15,2013-03-02 12:52:00,
2013-03-02 06:58:00,17.1,14.2,30.36,NNW,329,3.0,4.0,88,0.00,,,0.00,Wunderground v.1.15,2013-03-02 12:58:00,
2013-03-02 07:03:00,17.3,14.9,30.36,NNW,347,3.0,4.0,90,0.00,,,0.00,Wunderground v.1.15,2013-03-02 13:03:00,
2013-03-02 07:09:00,17.5,14.8,30.36,NNW,347,2.0,4.0,89,0.00,,,0.00,Wunderground v.1.15,2013-03-02 13:09:00,
2013-03-02 07:15:00,17.1,14.2,30.36,NW,306,3.0,4.0,88,0.00,,,0.00,Wunderground v.1.15,2013-03-02 13:15:00,
2013-03-02 07:20:00,16.4,13.2,30.37,WNW,284,4.0,4.0,87,0.00,,,0.00,Wunderground v.1.15,2013-03-02 13:20:00,
2013-03-02 07:25:00,16.0,13.1,30.37,WNW,292,4.0,4.0,88,0.00,,,0.00,Wunderground v.1.15,2013-03-02 13:25:00,
2013-03-02 07:31:00,16.0,13.3,30.36,WNW,301,4.0,5.0,89,0.00,,,0.00,Wunderground v.1.15,2013-03-02 13:31:00,
2013-03-02 07:36:00,16.1,13.4,30.37,WNW,301,4.0,5.0,89,0.00,,,0.00,Wunderground v.1.15,2013-03-02 13:36:00,
2013-03-02 07:41:00,16.3,13.6,30.37,WNW,302,4.0,4.0,89,0.00,,,0.00,Wunderground v.1.15,2013-03-02 13:41:00,
2013-03-02 07:47:00,16.3,13.6,30.37,NW,310,4.0,4.0,89,0.00,,,0.00,Wunderground v.1.15,2013-03-02 13:47:00,
2013-03-02 07:53:00,16.7,14.3,30.37,NW,321,3.0,4.0,90,0.00,,,0.00,Wunderground v.1.15,2013-03-02 13:53:00,
2013-03-02 07:58:00,17.2,14.8,30.38,NNW,333,3.0,4.0,90,0.00,,,0.00,Wunderground v.1.15,2013-03-02 13:58:00,
2013-03-02 08:03:00,18.0,15.6,30.37,NNW,333,3.0,3.0,90,0.00,,,0.00,Wunderground v.1.15,2013-03-02 14:03:00,
2013-03-02 08:08:00,19.0,16.3,30.38,North,355,3.0,4.0,89,0.00,,,0.00,Wunderground v.1.15,2013-03-02 14:08:00,
2013-03-02 08:14:00,19.6,16.6,30.37,NNE,19,3.0,4.0,88,0.00,,,0.00,Wunderground v.1.15,2013-03-02 14:14:00,
2013-03-02 08:19:00,19.8,16.6,30.37,NNE,19,3.0,4.0,87,0.00,,,0.00,Wunderground v.1.15,2013-03-02 14:19:00,
2013-03-02 08:24:00,20.0,16.8,30.37,NNE,19,3.0,4.0,87,0.00,,,0.00,Wunderground v.1.15,2013-03-02 14:24:00,
2013-03-02 08:30:00,20.7,17.4,30.37,NNE,23,3.0,4.0,87,0.00,,,0.00,Wunderground v.1.15,2013-03-02 14:30:00,
2013-03-02 08:36:00,21.1,17.6,30.37,NNE,16,3.0,4.0,86,0.00,,,0.00,Wunderground v.1.15,2013-03-02 14:36:00,
2013-03-02 08:41:00,21.6,17.8,30.37,NNW,345,3.0,4.0,85,0.00,,,0.00,Wunderground v.1.15,2013-03-02 14:41:00,
2013-03-02 08:47:00,22.4,18.3,30.37,NNW,345,2.0,4.0,84,0.00,,,0.00,Wunderground v.1.15,2013-03-02 14:47:00,
2013-03-02 08:52:00,22.9,18.8,30.37,North,5,2.0,3.0,84,0.00,,,0.00,Wunderground v.1.15,2013-03-02 14:52:00,
2013-03-02 08:58:00,23.3,18.9,30.37,North,5,1.0,3.0,83,0.00,,,0.00,Wunderground v.1.15,2013-03-02 14:58:00,
2013-03-02 09:03:00,23.8,19.4,30.36,North,5,1.0,2.0,83,0.00,,,0.00,Wunderground v.1.15,2013-03-02 15:03:00,
2013-03-02 09:08:00,24.0,19.3,30.37,North,5,1.0,2.0,82,0.00,,,0.00,Wunderground v.1.15,2013-03-02 15:08:00,
2013-03-02 09:13:00,24.4,19.7,30.37,North,5,1.0,2.0,82,0.00,,,0.00,Wunderground v.1.15,2013-03-02 15:13:00,
2013-03-02 09:19:00,25.1,20.1,30.37,North,5,1.0,2.0,81,0.00,,,0.00,Wunderground v.1.15,2013-03-02 15:19:00,
2013-03-02 09:24:00,25.4,20.1,30.37,North,5,1.0,2.0,80,0.00,,,0.00,Wunderground v.1.15,2013-03-02 15:24:00,
2013-03-02 09:30:00,25.4,19.8,30.37,North,5,2.0,2.0,79,0.00,,,0.00,Wunderground v.1.15,2013-03-02 15:30:00,
2013-03-02 09:36:00,25.3,19.7,30.36,NE,52,2.0,4.0,79,0.00,,,0.00,Wunderground v.1.15,2013-03-02 15:36:00,
2013-03-02 09:41:00,25.3,20.0,30.35,ENE,65,3.0,4.0,80,0.00,,,0.00,Wunderground v.1.15,2013-03-02 15:41:00,
2013-03-02 09:47:00,25.5,20.2,30.35,ENE,65,3.0,4.0,80,0.00,,,0.00,Wunderground v.1.15,2013-03-02 15:47:00,
2013-03-02 09:53:00,25.8,20.2,30.35,ENE,63,3.0,4.0,79,0.00,,,0.00,Wunderground v.1.15,2013-03-02 15:53:00,
2013-03-02 09:58:00,26.0,20.4,30.35,ENE,58,3.0,4.0,79,0.00,,,0.00,Wunderground v.1.15,2013-03-02 15:58:00,
2013-03-02 10:03:00,26.2,20.6,30.36,ENE,57,3.0,3.0,79,0.00,,,0.00,Wunderground v.1.15,2013-03-02 16:03:00,
2013-03-02 10:09:00,26.4,20.5,30.36,NNE,23,2.0,3.0,78,0.00,,,0.00,Wunderground v.1.15,2013-03-02 16:09:00,
2013-03-02 10:15:00,26.7,20.5,30.35,NE,52,2.0,4.0,77,0.00,,,0.00,Wunderground v.1.15,2013-03-02 16:15:00,
2013-03-02 10:20:00,27.0,21.1,30.35,ENE,68,3.0,4.0,78,0.00,,,0.00,Wunderground v.1.15,2013-03-02 16:20:00,
2013-03-02 10:25:00,27.1,20.8,30.35,ENE,76,3.0,5.0,77,0.00,,,0.00,Wunderground v.1.15,2013-03-02 16:25:00,
2013-03-02 10:31:00,27.4,21.4,30.35,East,90,3.0,5.0,78,0.00,,,0.00,Wunderground v.1.15,2013-03-02 16:31:00,
2013-03-02 10:37:00,28.2,21.3,30.35,East,90,3.0,5.0,75,0.00,,,0.00,Wunderground v.1.15,2013-03-02 16:37:00,
2013-03-02 10:42:00,28.9,21.7,30.35,East,90,2.0,3.0,74,0.00,,,0.00,Wunderground v.1.15,2013-03-02 16:42:00,
2013-03-02 10:48:00,29.3,21.7,30.35,ENE,74,2.0,3.0,73,0.00,,,0.00,Wunderground v.1.15,2013-03-02 16:48:00,
2013-03-02 10:53:00,29.5,21.9,30.35,ENE,74,2.0,2.0,73,0.00,,,0.00,Wunderground v.1.15,2013-03-02 16:53:00,
2013-03-02 10:59:00,30.6,22.6,30.36,ENE,74,1.0,2.0,72,0.00,,,0.00,Wunderground v.1.15,2013-03-02 16:59:00,
2013-03-02 11:04:00,30.9,22.3,30.36,ENE,74,1.0,2.0,70,0.00,,,0.00,Wunderground v.1.15,2013-03-02 17:04:00,
2013-03-02 11:09:00,31.0,22.4,30.35,ENE,74,1.0,2.0,70,0.00,,,0.00,Wunderground v.1.15,2013-03-02 17:09:00,
2013-03-02 11:15:00,31.6,22.6,30.35,NNE,14,1.0,2.0,69,0.00,,,0.00,Wunderground v.1.15,2013-03-02 17:15:00,
2013-03-02 11:20:00,31.5,22.5,30.35,ENE,72,2.0,2.0,69,0.00,,,0.00,Wunderground v.1.15,2013-03-02 17:20:00,
2013-03-02 11:26:00,31.6,22.6,30.35,ENE,73,1.0,3.0,69,0.00,,,0.00,Wunderground v.1.15,2013-03-02 17:26:00,
2013-03-02 11:31:00,32.5,23.5,30.35,ENE,73,0.0,1.0,69,0.00,,,0.00,Wunderground v.1.15,2013-03-02 17:31:00,
2013-03-02 11:36:00,32.7,24.0,30.35,SSE,157,1.0,3.0,70,0.00,,,0.00,Wunderground v.1.15,2013-03-02 17:36:00,
2013-03-02 11:42:00,31.7,22.7,30.35,SSE,163,2.0,3.0,69,0.00,,,0.00,Wunderground v.1.15,2013-03-02 17:42:00,
2013-03-02 11:47:00,31.8,22.8,30.35,SSE,163,2.0,3.0,69,0.00,,,0.00,Wunderground v.1.15,2013-03-02 17:47:00,
2013-03-02 11:53:00,32.4,22.7,30.34,SSE,152,2.0,3.0,67,0.00,,,0.00,Wunderground v.1.15,2013-03-02 17:53:00,
2013-03-02 11:58:00,33.0,22.5,30.34,SSE,152,1.0,3.0,65,0.00,,,0.00,Wunderground v.1.15,2013-03-02 17:58:00,
2013-03-02 12:04:00,33.1,23.3,30.34,SE,144,2.0,3.0,67,0.00,,,0.00,Wunderground v.1.15,2013-03-02 18:04:00,
2013-03-02 12:09:00,33.2,23.1,30.34,SE,144,2.0,3.0,66,0.00,,,0.00,Wunderground v.1.15,2013-03-02 18:09:00,
2013-03-02 12:16:00,33.4,22.9,30.34,SE,144,1.0,3.0,65,0.00,,,0.00,Wunderground v.1.15,2013-03-02 18:16:00,
2013-03-02 12:21:00,33.9,23.4,30.34,SE,144,1.0,1.0,65,0.00,,,0.00,Wunderground v.1.15,2013-03-02 18:21:00,
2013-03-02 12:26:00,34.3,23.0,30.34,SE,144,0.0,1.0,63,0.00,,,0.00,Wunderground v.1.15,2013-03-02 18:26:00,
2013-03-02 12:32:00,34.1,23.6,30.34,SE,144,1.0,2.0,65,0.00,,,0.00,Wunderground v.1.15,2013-03-02 18:32:00,
2013-03-02 12:37:00,34.6,24.0,30.34,SE,144,1.0,3.0,65,0.00,,,0.00,Wunderground v.1.15,2013-03-02 18:37:00,
2013-03-02 12:43:00,34.4,24.2,30.33,SE,144,2.0,3.0,66,0.00,,,0.00,Wunderground v.1.15,2013-03-02 18:43:00,
2013-03-02 12:48:00,34.3,23.7,30.32,SE,144,2.0,3.0,65,0.00,,,0.00,Wunderground v.1.15,2013-03-02 18:48:00,
2013-03-02 12:54:00,34.0,23.8,30.32,South,184,3.0,4.0,66,0.00,,,0.00,Wunderground v.1.15,2013-03-02 18:54:00,
2013-03-02 13:00:00,33.8,24.7,30.32,SSE,157,3.0,3.0,69,0.00,,,0.00,Wunderground v.1.15,2013-03-02 19:00:00,
2013-03-02 13:05:00,34.1,24.6,30.32,SW,222,3.0,5.0,68,0.00,,,0.00,Wunderground v.1.15,2013-03-02 19:05:00,
2013-03-02 13:11:00,34.5,24.3,30.32,SW,221,2.0,2.0,66,0.00,,,0.00,Wunderground v.1.15,2013-03-02 19:11:00,
2013-03-02 13:16:00,34.8,24.6,30.32,SW,215,2.0,5.0,66,0.00,,,0.00,Wunderground v.1.15,2013-03-02 19:16:00,
2013-03-02 13:21:00,34.8,24.6,30.31,SSW,205,3.0,5.0,66,0.00,,,0.00,Wunderground v.1.15,2013-03-02 19:21:00,
2013-03-02 13:27:00,34.5,24.3,30.30,SSW,199,3.0,6.0,66,0.00,,,0.00,Wunderground v.1.15,2013-03-02 19:27:00,
2013-03-02 13:32:00,34.6,25.1,30.30,SSW,202,3.0,4.0,68,0.00,,,0.00,Wunderground v.1.15,2013-03-02 19:32:00,
2013-03-02 13:38:00,34.9,25.4,30.30,SW,226,2.0,4.0,68,0.00,,,0.00,Wunderground v.1.15,2013-03-02 19:38:00,
2013-03-02 13:43:00,34.8,25.3,30.29,South,173,2.0,4.0,68,0.00,,,0.00,Wunderground v.1.15,2013-03-02 19:43:00,
2013-03-02 13:48:00,34.7,25.6,30.29,SSE,147,3.0,4.0,69,0.00,,,0.00,Wunderground v.1.15,2013-03-02 19:48:00,
2013-03-02 13:54:00,34.8,26.0,30.29,SE,135,4.0,5.0,70,0.00,,,0.00,Wunderground v.1.15,2013-03-02 19:54:00,
2013-03-02 14:00:00,35.0,25.5,30.29,SE,132,4.0,4.0,68,0.00,,,0.00,Wunderground v.1.15,2013-03-02 20:00:00,
2013-03-02 14:05:00,35.0,25.9,30.29,SE,141,4.0,5.0,69,0.00,,,0.00,Wunderground v.1.15,2013-03-02 20:05:00,
2013-03-02 14:11:00,35.1,25.6,30.28,SSE,150,3.0,4.0,68,0.00,,,0.00,Wunderground v.1.15,2013-03-02 20:11:00,
2013-03-02 14:16:00,35.0,25.9,30.28,SSE,165,3.0,4.0,69,0.00,,,0.00,Wunderground v.1.15,2013-03-02 20:16:00,
2013-03-02 14:22:00,34.8,25.3,30.28,South,175,3.0,4.0,68,0.00,,,0.00,Wunderground v.1.15,2013-03-02 20:22:00,
2013-03-02 14:27:00,34.9,25.4,30.28,SSE,153,3.0,4.0,68,0.00,,,0.00,Wunderground v.1.15,2013-03-02 20:27:00,
2013-03-02 14:33:00,35.1,25.9,30.28,SE,145,3.0,4.0,69,0.00,,,0.00,Wunderground v.1.15,2013-03-02 20:33:00,
2013-03-02 14:39:00,35.3,25.8,30.27,South,182,3.0,4.0,68,0.00,,,0.00,Wunderground v.1.15,2013-03-02 20:39:00,
2013-03-02 14:44:00,35.4,26.2,30.27,SSW,200,4.0,5.0,69,0.00,,,0.00,Wunderground v.1.15,2013-03-02 20:44:00,
2013-03-02 14:49:00,35.5,26.3,30.27,SSW,196,4.0,5.0,69,0.00,,,0.00,Wunderground v.1.15,2013-03-02 20:49:00,
2013-03-02 14:55:00,35.7,26.2,30.27,WSW,243,4.0,6.0,68,0.00,,,0.00,Wunderground v.1.15,2013-03-02 20:55:00,
2013-03-02 15:01:00,35.5,26.0,30.27,WSW,243,5.0,5.0,68,0.00,,,0.00,Wunderground v.1.15,2013-03-02 21:01:00,
2013-03-02 15:06:00,35.7,26.2,30.27,SSW,204,4.0,6.0,68,0.00,,,0.00,Wunderground v.1.15,2013-03-02 21:06:00,
2013-03-02 15:12:00,35.8,26.3,30.27,South,187,3.0,7.0,68,0.00,,,0.00,Wunderground v.1.15,2013-03-02 21:12:00,
2013-03-02 15:18:00,35.9,25.6,30.26,SSW,212,4.0,7.0,66,0.00,,,0.00,Wunderground v.1.15,2013-03-02 21:18:00,
2013-03-02 15:23:00,35.8,25.9,30.26,SSW,197,4.0,6.0,67,0.00,,,0.00,Wunderground v.1.15,2013-03-02 21:23:00,
2013-03-02 15:29:00,35.9,25.6,30.26,SSW,211,5.0,6.0,66,0.00,,,0.00,Wunderground v.1.15,2013-03-02 21:29:00,
2013-03-02 15:35:00,36.1,26.6,30.26,SW,227,5.0,6.0,68,0.00,,,0.00,Wunderground v.1.15,2013-03-02 21:35:00,
2013-03-02 15:40:00,36.2,26.6,30.25,South,179,5.0,6.0,68,0.00,,,0.00,Wunderground v.1.15,2013-03-02 21:40:00,
2013-03-02 15:46:00,36.3,26.7,30.25,SSW,208,5.0,8.0,68,0.00,,,0.00,Wunderground v.1.15,2013-03-02 21:46:00,
2013-03-02 15:51:00,36.2,26.3,30.25,SSW,207,6.0,7.0,67,0.00,,,0.00,Wunderground v.1.15,2013-03-02 21:51:00,
2013-03-02 15:57:00,36.1,26.9,30.25,SSW,200,6.0,7.0,69,0.00,,,0.00,Wunderground v.1.15,2013-03-02 21:57:00,
2013-03-02 16:02:00,36.1,26.2,30.25,South,184,6.0,7.0,67,0.00,,,0.00,Wunderground v.1.15,2013-03-02 22:02:00,
2013-03-02 16:08:00,36.2,26.3,30.24,SSW,203,6.0,7.0,67,0.00,,,0.00,Wunderground v.1.15,2013-03-02 22:08:00,
2013-03-02 16:13:00,36.3,25.7,30.25,SSW,208,5.0,6.0,65,0.00,,,0.00,Wunderground v.1.15,2013-03-02 22:13:00,
2013-03-02 16:19:00,36.2,25.9,30.25,South,180,5.0,7.0,66,0.00,,,0.00,Wunderground v.1.15,2013-03-02 22:19:00,
2013-03-02 16:25:00,36.5,25.8,30.25,SSW,200,5.0,6.0,65,0.00,,,0.00,Wunderground v.1.15,2013-03-02 22:25:00,
2013-03-02 16:30:00,36.5,25.8,30.24,SSW,207,5.0,5.0,65,0.00,,,0.00,Wunderground v.1.15,2013-03-02 22:30:00,
2013-03-02 16:36:00,36.6,26.3,30.24,SSW,203,5.0,7.0,66,0.00,,,0.00,Wunderground v.1.15,2013-03-02 22:36:00,
2013-03-02 16:41:00,36.8,27.2,30.24,SSE,166,4.0,4.0,68,0.00,,,0.00,Wunderground v.1.15,2013-03-02 22:41:00,
2013-03-02 16:47:00,36.7,26.8,30.24,South,177,4.0,5.0,67,0.00,,,0.00,Wunderground v.1.15,2013-03-02 22:47:00,
2013-03-02 16:53:00,36.8,25.4,30.24,South,180,4.0,5.0,63,0.00,,,0.00,Wunderground v.1.15,2013-03-02 22:53:00,
2013-03-02 16:58:00,36.8,25.8,30.24,South,186,4.0,6.0,64,0.00,,,0.00,Wunderground v.1.15,2013-03-02 22:58:00,
2013-03-02 17:04:00,36.5,24.3,30.23,SSW,207,4.0,6.0,61,0.00,,,0.00,Wunderground v.1.15,2013-03-02 23:04:00,
2013-03-02 17:09:00,36.3,23.7,30.23,SSW,194,5.0,8.0,60,0.00,,,0.00,Wunderground v.1.15,2013-03-02 23:09:00,
2013-03-02 17:15:00,36.3,24.5,30.23,SSW,200,6.0,8.0,62,0.00,,,0.00,Wunderground v.1.15,2013-03-02 23:15:00,
2013-03-02 17:20:00,36.1,25.5,30.22,SSW,192,5.0,6.0,65,0.00,,,0.00,Wunderground v.1.15,2013-03-02 23:20:00,
2013-03-02 17:26:00,36.0,25.7,30.23,SSW,208,5.0,6.0,66,0.00,,,0.00,Wunderground v.1.15,2013-03-02 23:26:00,
2013-03-02 17:31:00,36.0,25.7,30.23,SSW,202,4.0,4.0,66,0.00,,,0.00,Wunderground v.1.15,2013-03-02 23:31:00,
2013-03-02 17:37:00,36.1,25.8,30.23,SW,217,3.0,4.0,66,0.00,,,0.00,Wunderground v.1.15,2013-03-02 23:37:00,
2013-03-02 17:42:00,36.0,26.1,30.23,SW,215,3.0,4.0,67,0.00,,,0.00,Wunderground v.1.15,2013-03-02 23:42:00,
2013-03-02 17:48:00,36.0,26.5,30.23,SW,220,3.0,4.0,68,0.00,,,0.00,Wunderground v.1.15,2013-03-02 23:48:00,
2013-03-02 17:53:00,36.0,26.5,30.23,SSW,202,3.0,3.0,68,0.00,,,0.00,Wunderground v.1.15,2013-03-02 23:53:00,
2013-03-02 17:59:00,36.0,26.5,30.23,SSW,202,2.0,3.0,68,0.00,,,0.00,Wunderground v.1.15,2013-03-02 23:59:00,
2013-03-02 18:04:00,36.0,26.1,30.22,South,171,2.0,3.0,67,0.00,,,0.00,Wunderground v.1.15,2013-03-03 00:04:00,
2013-03-02 18:10:00,35.7,25.8,30.22,SE,135,3.0,5.0,67,0.00,,,0.00,Wunderground v.1.15,2013-03-03 00:10:00,
2013-03-02 18:16:00,35.5,26.0,30.22,SE,127,4.0,5.0,68,0.00,,,0.00,Wunderground v.1.15,2013-03-03 00:16:00,
2013-03-02 18:21:00,35.2,25.7,30.22,SE,125,3.0,3.0,68,0.00,,,0.00,Wunderground v.1.15,2013-03-03 00:21:00,
2013-03-02 18:27:00,35.0,25.9,30.22,SE,127,3.0,3.0,69,0.00,,,0.00,Wunderground v.1.15,2013-03-03 00:27:00,
2013-03-02 18:32:00,34.8,25.7,30.22,SE,126,2.0,3.0,69,0.00,,,0.00,Wunderground v.1.15,2013-03-03 00:32:00,
2013-03-02 18:38:00,34.7,25.6,30.22,SE,125,3.0,3.0,69,0.00,,,0.00,Wunderground v.1.15,2013-03-03 00:38:00,
2013-03-02 18:43:00,34.5,25.7,30.22,ESE,109,3.0,4.0,70,0.00,,,0.00,Wunderground v.1.15,2013-03-03 00:43:00,
2013-03-02 18:49:00,34.2,25.8,30.21,ESE,104,3.0,4.0,71,0.00,,,0.00,Wunderground v.1.15,2013-03-03 00:49:00,
2013-03-02 18:55:00,33.8,25.7,30.21,ESE,105,3.0,4.0,72,0.00,,,0.00,Wunderground v.1.15,2013-03-03 00:55:00,
2013-03-02 19:00:00,33.6,25.5,30.21,ESE,113,3.0,5.0,72,0.00,,,0.00,Wunderground v.1.15,2013-03-03 01:00:00,
2013-03-02 19:05:00,33.5,25.4,30.21,ESE,121,4.0,5.0,72,0.00,,,0.00,Wunderground v.1.15,2013-03-03 01:05:00,
2013-03-02 19:11:00,33.5,25.4,30.21,SE,130,4.0,4.0,72,0.00,,,0.00,Wunderground v.1.15,2013-03-03 01:11:00,
2013-03-02 19:17:00,33.4,25.7,30.21,SE,142,4.0,4.0,73,0.00,,,0.00,Wunderground v.1.15,2013-03-03 01:17:00,
2013-03-02 19:22:00,32.9,25.8,30.20,SSE,157,4.0,5.0,75,0.00,,,0.00,Wunderground v.1.15,2013-03-03 01:22:00,
2013-03-02 19:28:00,32.6,25.2,30.20,SSE,151,4.0,5.0,74,0.00,,,0.00,Wunderground v.1.15,2013-03-03 01:28:00,
2013-03-02 19:34:00,33.0,25.3,30.20,SSE,161,5.0,6.0,73,0.00,,,0.00,Wunderground v.1.15,2013-03-03 01:34:00,
2013-03-02 19:39:00,33.2,25.1,30.20,SSE,161,5.0,6.0,72,0.00,,,0.00,Wunderground v.1.15,2013-03-03 01:39:00,
2013-03-02 19:45:00,33.2,25.1,30.20,SSE,152,4.0,6.0,72,0.00,,,0.00,Wunderground v.1.15,2013-03-03 01:45:00,
2013-03-02 19:50:00,33.4,25.3,30.20,SSE,159,4.0,4.0,72,0.00,,,0.00,Wunderground v.1.15,2013-03-03 01:50:00,
2013-03-02 19:56:00,33.0,25.3,30.20,SSE,163,4.0,5.0,73,0.00,,,0.00,Wunderground v.1.15,2013-03-03 01:56:00,
2013-03-02 20:01:00,32.9,24.9,30.20,SSE,154,3.0,4.0,72,0.00,,,0.00,Wunderground v.1.15,2013-03-03 02:01:00,
2013-03-02 20:06:00,33.1,24.7,30.20,SSE,157,3.0,4.0,71,0.00,,,0.00,Wunderground v.1.15,2013-03-03 02:06:00,
2013-03-02 20:12:00,33.1,24.7,30.19,SSE,155,3.0,3.0,71,0.00,,,0.00,Wunderground v.1.15,2013-03-03 02:12:00,
2013-03-02 20:18:00,33.0,24.6,30.19,SSE,155,3.0,4.0,71,0.00,,,0.00,Wunderground v.1.15,2013-03-03 02:18:00,
2013-03-02 20:23:00,32.9,24.9,30.19,SSE,151,3.0,4.0,72,0.00,,,0.00,Wunderground v.1.15,2013-03-03 02:23:00,
2013-03-02 20:29:00,32.9,24.5,30.19,SSE,152,3.0,5.0,71,0.00,,,0.00,Wunderground v.1.15,2013-03-03 02:29:00,
2013-03-02 20:34:00,33.0,24.3,30.19,SSE,148,4.0,5.0,70,0.00,,,0.00,Wunderground v.1.15,2013-03-03 02:34:00,
2013-03-02 20:40:00,33.3,24.2,30.19,SSE,158,4.0,5.0,69,0.00,,,0.00,Wunderground v.1.15,2013-03-03 02:40:00,
2013-03-02 20:45:00,33.2,24.5,30.19,SSE,167,4.0,5.0,70,0.00,,,0.00,Wunderground v.1.15,2013-03-03 02:45:00,
2013-03-02 20:51:00,32.7,24.7,30.19,South,171,5.0,5.0,72,0.00,,,0.00,Wunderground v.1.15,2013-03-03 02:51:00,
2013-03-02 20:56:00,32.6,24.6,30.19,South,173,5.0,6.0,72,0.00,,,0.00,Wunderground v.1.15,2013-03-03 02:56:00,
2013-03-02 21:02:00,32.4,24.4,30.18,South,179,5.0,6.0,72,0.00,,,0.00,Wunderground v.1.15,2013-03-03 03:02:00,
2013-03-02 21:08:00,32.5,24.8,30.18,South,175,6.0,7.0,73,0.00,,,0.00,Wunderground v.1.15,2013-03-03 03:08:00,
2013-03-02 21:13:00,32.5,24.5,30.18,South,175,6.0,7.0,72,0.00,,,0.00,Wunderground v.1.15,2013-03-03 03:13:00,
2013-03-02 21:19:00,32.7,24.7,30.17,South,171,7.0,8.0,72,0.00,,,0.00,Wunderground v.1.15,2013-03-03 03:19:00,
2013-03-02 21:25:00,32.7,24.7,30.17,SSE,167,6.0,7.0,72,0.00,,,0.00,Wunderground v.1.15,2013-03-03 03:25:00,
2013-03-02 21:30:00,32.8,24.8,30.17,SSE,167,6.0,7.0,72,0.00,,,0.00,Wunderground v.1.15,2013-03-03 03:30:00,
2013-03-02 21:36:00,33.0,25.0,30.17,South,170,6.0,7.0,72,0.00,,,0.00,Wunderground v.1.15,2013-03-03 03:36:00,
2013-03-02 21:41:00,32.8,25.1,30.17,SSE,167,6.0,7.0,73,0.00,,,0.00,Wunderground v.1.15,2013-03-03 03:41:00,
2013-03-02 21:46:00,32.8,25.4,30.17,SSE,168,6.0,7.0,74,0.00,,,0.00,Wunderground v.1.15,2013-03-03 03:46:00,
2013-03-02 21:52:00,32.9,25.5,30.17,SSE,165,6.0,7.0,74,0.00,,,0.00,Wunderground v.1.15,2013-03-03 03:52:00,
2013-03-02 21:58:00,33.0,25.6,30.17,SSE,159,6.0,7.0,74,0.00,,,0.00,Wunderground v.1.15,2013-03-03 03:58:00,
2013-03-02 22:03:00,33.0,25.9,30.17,SSE,168,6.0,7.0,75,0.00,,,0.00,Wunderground v.1.15,2013-03-03 04:03:00,
2013-03-02 22:09:00,32.7,26.3,30.16,South,175,6.0,7.0,77,0.00,,,0.00,Wunderground v.1.15,2013-03-03 04:09:00,
2013-03-02 22:15:00,32.6,26.2,30.16,South,170,5.0,6.0,77,0.00,,,0.00,Wunderground v.1.15,2013-03-03 04:15:00,
2013-03-02 22:21:00,32.9,26.5,30.16,SSE,164,5.0,5.0,77,0.00,,,0.00,Wunderground v.1.15,2013-03-03 04:21:00,
2013-03-02 22:27:00,32.9,26.5,30.16,South,169,4.0,5.0,77,0.00,,,0.00,Wunderground v.1.15,2013-03-03 04:27:00,
2013-03-02 22:33:00,32.9,26.5,30.16,SSE,159,4.0,5.0,77,0.00,,,0.00,Wunderground v.1.15,2013-03-03 04:33:00,
2013-03-02 22:39:00,32.6,26.5,30.16,SSE,163,5.0,6.0,78,0.00,,,0.00,Wunderground v.1.15,2013-03-03 04:39:00,
2013-03-02 22:44:00,32.7,26.6,30.15,South,169,5.0,6.0,78,0.00,,,0.00,Wunderground v.1.15,2013-03-03 04:44:00,
2013-03-02 22:50:00,32.2,26.4,30.15,South,174,5.0,6.0,79,0.00,,,0.00,Wunderground v.1.15,2013-03-03 04:50:00,
2013-03-02 22:55:00,31.9,26.4,30.15,South,171,6.0,7.0,80,0.00,,,0.00,Wunderground v.1.15,2013-03-03 04:55:00,
2013-03-02 23:00:00,31.9,26.4,30.15,South,169,6.0,6.0,80,0.00,,,0.00,Wunderground v.1.15,2013-03-03 05:00:00,
2013-03-02 23:03:00,32.1,26.6,30.15,SSE,168,6.0,6.0,80,0.00,,,0.00,Wunderground v.1.15,2013-03-03 05:03:00,
2013-03-02 23:04:00,32.2,26.7,30.15,SSE,167,6.0,6.0,80,0.00,,,0.00,Wunderground v.1.15,2013-03-03 05:04:00,
2013-03-02 23:09:00,32.5,26.7,30.14,SSE,160,6.0,7.0,79,0.00,,,0.00,Wunderground v.1.15,2013-03-03 05:09:00,
2013-03-02 23:13:00,32.5,26.7,30.14,SSE,168,6.0,7.0,79,0.00,,,0.00,Wunderground v.1.15,2013-03-03 05:13:00,
2013-03-02 23:18:00,32.1,26.6,30.14,South,180,6.0,7.0,80,0.00,,,0.00,Wunderground v.1.15,2013-03-03 05:18:00,
2013-03-02 23:24:00,31.8,26.6,30.14,South,183,6.0,7.0,81,0.00,,,0.00,Wunderground v.1.15,2013-03-03 05:24:00,
2013-03-02 23:30:00,32.1,26.6,30.14,South,178,7.0,8.0,80,0.00,,,0.00,Wunderground v.1.15,2013-03-03 05:30:00,
2013-03-02 23:35:00,32.1,26.6,30.14,South,182,7.0,8.0,80,0.00,,,0.00,Wunderground v.1.15,2013-03-03 05:35:00,
2013-03-02 23:41:00,32.2,26.7,30.15,South,181,6.0,6.0,80,0.00,,,0.00,Wunderground v.1.15,2013-03-03 05:41:00,
2013-03-02 23:46:00,32.2,26.7,30.14,South,184,6.0,6.0,80,0.00,,,0.00,Wunderground v.1.15,2013-03-03 05:46:00,
2013-03-02 23:52:00,32.4,26.9,30.14,South,173,5.0,6.0,80,0.00,,,0.00,Wunderground v.1.15,2013-03-03 05:52:00,
2013-03-02 23:57:00,32.3,26.8,30.14,South,183,5.0,6.0,80,0.00,,,0.00,Wunderground v.1.15,2013-03-03 05:57:00,